sensor_id;sensor_type;location;lat;lon;timestamp;pressure;altitude;pressure_sealevel;temperature;humidity
28306;BME280;7516;43.570;1.448;2024-02-04T00:00:32;101227.75;;;7.74;100.00
28306;BME280;7516;43.570;1.448;2024-02-04T00:03:00;101221.13;;;7.70;100.00
28306;BME280;7516;43.570;1.448;2024-02-04T00:05:27;101219.44;;;7.69;100.00
28306;BME280;7516;43.570;1.448;2024-02-04T00:07:55;101222.66;;;7.84;100.00
28306;BME280;7516;43.570;1.448;2024-02-04T00:10:22;101223.28;;;7.87;100.00
28306;BME280;7516;43.570;1.448;2024-02-04T00:12:51;101218.91;;;7.88;100.00
28306;BME280;7516;43.570;1.448;2024-02-04T00:15:18;101223.28;;;7.87;100.00
28306;BME280;7516;43.570;1.448;2024-02-04T00:17:46;101220.56;;;7.89;100.00
28306;BME280;7516;43.570;1.448;2024-02-04T00:20:14;101212.22;;;7.84;100.00
28306;BME280;7516;43.570;1.448;2024-02-04T00:22:41;101209.50;;;7.85;100.00
28306;BME280;7516;43.570;1.448;2024-02-04T00:25:09;101215.66;;;7.84;100.00
28306;BME280;7516;43.570;1.448;2024-02-04T00:27:38;101218.31;;;7.96;100.00
28306;BME280;7516;43.570;1.448;2024-02-04T00:30:09;101210.59;;;7.94;100.00
28306;BME280;7516;43.570;1.448;2024-02-04T00:32:36;101221.97;;;7.93;100.00
28306;BME280;7516;43.570;1.448;2024-02-04T00:35:04;101223.38;;;7.75;100.00
28306;BME280;7516;43.570;1.448;2024-02-04T00:37:32;101221.72;;;7.74;100.00
28306;BME280;7516;43.570;1.448;2024-02-04T00:40:00;101211.41;;;7.72;100.00
28306;BME280;7516;43.570;1.448;2024-02-04T00:42:27;101221.50;;;7.88;100.00
28306;BME280;7516;43.570;1.448;2024-02-04T00:44:55;101214.47;;;7.77;100.00
28306;BME280;7516;43.570;1.448;2024-02-04T00:47:24;101214.84;;;7.73;100.00
28306;BME280;7516;43.570;1.448;2024-02-04T00:49:52;101221.59;;;7.75;100.00
28306;BME280;7516;43.570;1.448;2024-02-04T00:52:20;101222.91;;;7.81;100.00
28306;BME280;7516;43.570;1.448;2024-02-04T00:54:47;101229.16;;;7.67;100.00
28306;BME280;7516;43.570;1.448;2024-02-04T00:57:15;101226.34;;;7.70;100.00
28306;BME280;7516;43.570;1.448;2024-02-04T00:59:42;101227.41;;;7.79;100.00
28306;BME280;7516;43.570;1.448;2024-02-04T01:02:09;101224.44;;;7.83;100.00
28306;BME280;7516;43.570;1.448;2024-02-04T01:04:41;101226.84;;;7.86;100.00
28306;BME280;7516;43.570;1.448;2024-02-04T01:07:09;101220.91;;;7.84;100.00
28306;BME280;7516;43.570;1.448;2024-02-04T01:09:36;101219.81;;;7.76;100.00
28306;BME280;7516;43.570;1.448;2024-02-04T01:12:04;101226.00;;;7.86;100.00
28306;BME280;7516;43.570;1.448;2024-02-04T01:14:32;101220.66;;;7.87;100.00
28306;BME280;7516;43.570;1.448;2024-02-04T01:16:59;101223.03;;;7.79;100.00
28306;BME280;7516;43.570;1.448;2024-02-04T01:19:26;101228.47;;;7.76;100.00
28306;BME280;7516;43.570;1.448;2024-02-04T01:21:55;101215.19;;;7.79;100.00
28306;BME280;7516;43.570;1.448;2024-02-04T01:24:24;101211.53;;;7.82;100.00
28306;BME280;7516;43.570;1.448;2024-02-04T01:26:52;101217.44;;;7.84;100.00
28306;BME280;7516;43.570;1.448;2024-02-04T01:29:19;101206.31;;;7.71;100.00
28306;BME280;7516;43.570;1.448;2024-02-04T01:31:47;101204.88;;;7.78;100.00
28306;BME280;7516;43.570;1.448;2024-02-04T01:34:14;101210.09;;;7.78;100.00
28306;BME280;7516;43.570;1.448;2024-02-04T01:36:41;101209.16;;;7.79;100.00
28306;BME280;7516;43.570;1.448;2024-02-04T01:39:11;101213.44;;;7.80;100.00
28306;BME280;7516;43.570;1.448;2024-02-04T01:41:38;101209.84;;;7.70;100.00
28306;BME280;7516;43.570;1.448;2024-02-04T01:44:06;101205.81;;;7.66;100.00
28306;BME280;7516;43.570;1.448;2024-02-04T01:46:33;101204.03;;;7.66;100.00
28306;BME280;7516;43.570;1.448;2024-02-04T01:49:01;101198.59;;;7.69;100.00
28306;BME280;7516;43.570;1.448;2024-02-04T01:51:28;101199.75;;;7.65;100.00
28306;BME280;7516;43.570;1.448;2024-02-04T01:53:56;101203.66;;;7.60;100.00
28306;BME280;7516;43.570;1.448;2024-02-04T01:56:25;101207.22;;;7.59;100.00
28306;BME280;7516;43.570;1.448;2024-02-04T01:58:53;101208.75;;;7.50;100.00
28306;BME280;7516;43.570;1.448;2024-02-04T02:01:21;101204.28;;;7.63;100.00
28306;BME280;7516;43.570;1.448;2024-02-04T02:03:49;101211.03;;;7.54;100.00
28306;BME280;7516;43.570;1.448;2024-02-04T02:06:17;101220.00;;;7.50;100.00
28306;BME280;7516;43.570;1.448;2024-02-04T02:08:46;101216.66;;;7.48;100.00
28306;BME280;7516;43.570;1.448;2024-02-04T02:11:21;101210.63;;;7.48;100.00
28306;BME280;7516;43.570;1.448;2024-02-04T02:13:57;101214.31;;;7.56;100.00
28306;BME280;7516;43.570;1.448;2024-02-04T02:16:31;101209.34;;;7.53;100.00
28306;BME280;7516;43.570;1.448;2024-02-04T02:19:06;101207.56;;;7.54;100.00
28306;BME280;7516;43.570;1.448;2024-02-04T02:21:44;101217.25;;;7.41;100.00
28306;BME280;7516;43.570;1.448;2024-02-04T02:24:25;101219.03;;;7.40;100.00
28306;BME280;7516;43.570;1.448;2024-02-04T02:26:53;101222.16;;;7.56;100.00
28306;BME280;7516;43.570;1.448;2024-02-04T02:29:23;101218.63;;;7.69;100.00
28306;BME280;7516;43.570;1.448;2024-02-04T02:31:50;101215.84;;;7.48;100.00
28306;BME280;7516;43.570;1.448;2024-02-04T02:34:18;101220.59;;;7.43;100.00
28306;BME280;7516;43.570;1.448;2024-02-04T02:36:49;101220.22;;;7.36;100.00
28306;BME280;7516;43.570;1.448;2024-02-04T02:39:20;101208.38;;;7.43;100.00
28306;BME280;7516;43.570;1.448;2024-02-04T02:41:53;101204.34;;;7.50;100.00
28306;BME280;7516;43.570;1.448;2024-02-04T02:44:25;101191.56;;;7.47;100.00
28306;BME280;7516;43.570;1.448;2024-02-04T02:46:53;101189.91;;;7.57;100.00
28306;BME280;7516;43.570;1.448;2024-02-04T02:49:21;101197.25;;;7.52;100.00
28306;BME280;7516;43.570;1.448;2024-02-04T02:51:49;101192.94;;;7.40;100.00
28306;BME280;7516;43.570;1.448;2024-02-04T02:54:16;101197.72;;;7.46;100.00
28306;BME280;7516;43.570;1.448;2024-02-04T02:56:44;101199.59;;;7.44;100.00
28306;BME280;7516;43.570;1.448;2024-02-04T02:59:12;101201.97;;;7.36;100.00
28306;BME280;7516;43.570;1.448;2024-02-04T03:01:40;101200.06;;;7.38;100.00
28306;BME280;7516;43.570;1.448;2024-02-04T03:04:07;101201.72;;;7.39;100.00
28306;BME280;7516;43.570;1.448;2024-02-04T03:06:35;101193.44;;;7.45;100.00
28306;BME280;7516;43.570;1.448;2024-02-04T03:09:03;101198.41;;;7.48;100.00
28306;BME280;7516;43.570;1.448;2024-02-04T03:11:30;101192.00;;;7.41;100.00
28306;BME280;7516;43.570;1.448;2024-02-04T03:13:58;101198.78;;;7.44;100.00
28306;BME280;7516;43.570;1.448;2024-02-04T03:16:27;101201.84;;;7.49;100.00
28306;BME280;7516;43.570;1.448;2024-02-04T03:18:54;101202.00;;;7.47;100.00
28306;BME280;7516;43.570;1.448;2024-02-04T03:21:21;101209.75;;;7.25;100.00
28306;BME280;7516;43.570;1.448;2024-02-04T03:23:49;101198.59;;;7.23;100.00
28306;BME280;7516;43.570;1.448;2024-02-04T03:26:17;101197.59;;;7.13;100.00
28306;BME280;7516;43.570;1.448;2024-02-04T03:28:47;101194.66;;;7.17;100.00
28306;BME280;7516;43.570;1.448;2024-02-04T03:31:20;101191.00;;;7.20;100.00
28306;BME280;7516;43.570;1.448;2024-02-04T03:33:50;101183.31;;;7.18;100.00
28306;BME280;7516;43.570;1.448;2024-02-04T03:36:21;101185.13;;;7.29;100.00
28306;BME280;7516;43.570;1.448;2024-02-04T03:38:49;101188.19;;;7.34;100.00
28306;BME280;7516;43.570;1.448;2024-02-04T03:41:17;101186.66;;;7.32;100.00
28306;BME280;7516;43.570;1.448;2024-02-04T03:43:44;101196.75;;;7.36;100.00
28306;BME280;7516;43.570;1.448;2024-02-04T03:46:13;101192.38;;;7.37;100.00
28306;BME280;7516;43.570;1.448;2024-02-04T03:48:41;101200.06;;;7.38;100.00
28306;BME280;7516;43.570;1.448;2024-02-04T03:51:15;101186.91;;;7.40;100.00
28306;BME280;7516;43.570;1.448;2024-02-04T03:53:43;101197.00;;;7.44;100.00
28306;BME280;7516;43.570;1.448;2024-02-04T03:56:10;101200.78;;;7.40;100.00
28306;BME280;7516;43.570;1.448;2024-02-04T03:58:38;101203.38;;;7.40;100.00
28306;BME280;7516;43.570;1.448;2024-02-04T04:01:09;101197.09;;;7.43;100.00
28306;BME280;7516;43.570;1.448;2024-02-04T04:03:38;101199.00;;;7.41;100.00
28306;BME280;7516;43.570;1.448;2024-02-04T04:06:06;101188.56;;;7.41;100.00
28306;BME280;7516;43.570;1.448;2024-02-04T04:08:35;101189.97;;;7.34;100.00
28306;BME280;7516;43.570;1.448;2024-02-04T04:11:02;101181.53;;;7.30;100.00
28306;BME280;7516;43.570;1.448;2024-02-04T04:13:30;101179.66;;;7.32;100.00
28306;BME280;7516;43.570;1.448;2024-02-04T04:16:00;101172.34;;;7.37;100.00
28306;BME280;7516;43.570;1.448;2024-02-04T04:18:28;101170.91;;;7.44;100.00
28306;BME280;7516;43.570;1.448;2024-02-04T04:20:55;101176.59;;;7.38;100.00
28306;BME280;7516;43.570;1.448;2024-02-04T04:23:23;101180.16;;;7.37;100.00
28306;BME280;7516;43.570;1.448;2024-02-04T04:25:52;101168.91;;;7.37;100.00
28306;BME280;7516;43.570;1.448;2024-02-04T04:28:20;101165.47;;;7.36;100.00
28306;BME280;7516;43.570;1.448;2024-02-04T04:30:47;101165.47;;;7.36;100.00
28306;BME280;7516;43.570;1.448;2024-02-04T04:33:15;101163.56;;;7.38;100.00
28306;BME280;7516;43.570;1.448;2024-02-04T04:35:42;101163.22;;;7.43;100.00
28306;BME280;7516;43.570;1.448;2024-02-04T04:38:09;101163.56;;;7.38;100.00
28306;BME280;7516;43.570;1.448;2024-02-04T04:40:37;101158.94;;;7.42;100.00
28306;BME280;7516;43.570;1.448;2024-02-04T04:43:07;101155.97;;;7.35;100.00
28306;BME280;7516;43.570;1.448;2024-02-04T04:45:35;101150.41;;;7.40;100.00
28306;BME280;7516;43.570;1.448;2024-02-04T04:48:03;101153.16;;;7.38;100.00
28306;BME280;7516;43.570;1.448;2024-02-04T04:50:30;101158.09;;;7.41;100.00
28306;BME280;7516;43.570;1.448;2024-02-04T04:52:58;101155.38;;;7.43;100.00
28306;BME280;7516;43.570;1.448;2024-02-04T04:55:25;101150.75;;;7.35;100.00
28306;BME280;7516;43.570;1.448;2024-02-04T04:57:53;101152.38;;;7.25;100.00
28306;BME280;7516;43.570;1.448;2024-02-04T05:00:22;101147.44;;;7.33;100.00
28306;BME280;7516;43.570;1.448;2024-02-04T05:02:50;101157.63;;;7.36;100.00
28306;BME280;7516;43.570;1.448;2024-02-04T05:05:18;101160.31;;;7.24;100.00
28306;BME280;7516;43.570;1.448;2024-02-04T05:07:45;101165.16;;;7.17;100.00
28306;BME280;7516;43.570;1.448;2024-02-04T05:10:13;101167.66;;;7.18;100.00
28306;BME280;7516;43.570;1.448;2024-02-04T05:12:41;101171.94;;;7.31;100.00
28306;BME280;7516;43.570;1.448;2024-02-04T05:15:09;101175.97;;;7.24;100.00
28306;BME280;7516;43.570;1.448;2024-02-04T05:17:38;101177.47;;;7.15;100.00
28306;BME280;7516;43.570;1.448;2024-02-04T05:20:06;101173.19;;;7.14;100.00
28306;BME280;7516;43.570;1.448;2024-02-04T05:22:34;101180.31;;;7.12;100.00
28306;BME280;7516;43.570;1.448;2024-02-04T05:25:01;101178.53;;;7.12;100.00
28306;BME280;7516;43.570;1.448;2024-02-04T05:27:31;101177.94;;;7.09;100.00
28306;BME280;7516;43.570;1.448;2024-02-04T05:29:58;101165.63;;;7.11;100.00
28306;BME280;7516;43.570;1.448;2024-02-04T05:32:26;101165.22;;;6.93;100.00
28306;BME280;7516;43.570;1.448;2024-02-04T05:34:54;101161.09;;;7.02;100.00
28306;BME280;7516;43.570;1.448;2024-02-04T05:37:22;101159.47;;;7.12;100.00
28306;BME280;7516;43.570;1.448;2024-02-04T05:39:49;101163.50;;;7.16;100.00
28306;BME280;7516;43.570;1.448;2024-02-04T05:42:17;101166.63;;;7.21;100.00
28306;BME280;7516;43.570;1.448;2024-02-04T05:44:44;101166.16;;;7.27;100.00
28306;BME280;7516;43.570;1.448;2024-02-04T05:47:12;101165.94;;;7.06;100.00
28306;BME280;7516;43.570;1.448;2024-02-04T05:49:39;101169.28;;;7.08;100.00
28306;BME280;7516;43.570;1.448;2024-02-04T05:52:09;101174.28;;;6.88;100.00
28306;BME280;7516;43.570;1.448;2024-02-04T05:54:38;101179.50;;;6.88;100.00
28306;BME280;7516;43.570;1.448;2024-02-04T05:57:06;101178.91;;;6.84;100.00
28306;BME280;7516;43.570;1.448;2024-02-04T05:59:34;101191.59;;;6.89;100.00
28306;BME280;7516;43.570;1.448;2024-02-04T06:02:01;101198.47;;;6.90;100.00
28306;BME280;7516;43.570;1.448;2024-02-04T06:04:30;101203.47;;;6.93;100.00
28306;BME280;7516;43.570;1.448;2024-02-04T06:06:58;101215.75;;;6.91;100.00
28306;BME280;7516;43.570;1.448;2024-02-04T06:09:27;101216.88;;;6.75;100.00
28306;BME280;7516;43.570;1.448;2024-02-04T06:11:54;101218.84;;;6.72;100.00
28306;BME280;7516;43.570;1.448;2024-02-04T06:14:21;101211.59;;;6.88;100.00
28306;BME280;7516;43.570;1.448;2024-02-04T06:16:49;101212.44;;;6.89;100.00
28306;BME280;7516;43.570;1.448;2024-02-04T06:19:16;101220.44;;;6.62;100.00
28306;BME280;7516;43.570;1.448;2024-02-04T06:21:44;101226.47;;;6.75;100.00
28306;BME280;7516;43.570;1.448;2024-02-04T06:24:11;101220.91;;;6.79;100.00
28306;BME280;7516;43.570;1.448;2024-02-04T06:26:40;101227.13;;;6.90;100.00
28306;BME280;7516;43.570;1.448;2024-02-04T06:29:08;101229.34;;;6.83;100.00
28306;BME280;7516;43.570;1.448;2024-02-04T06:31:35;101219.69;;;6.96;100.00
28306;BME280;7516;43.570;1.448;2024-02-04T06:34:03;101216.25;;;6.96;100.00
28306;BME280;7516;43.570;1.448;2024-02-04T06:36:30;101213.22;;;7.02;100.00
28306;BME280;7516;43.570;1.448;2024-02-04T06:38:58;101223.63;;;7.02;100.00
28306;BME280;7516;43.570;1.448;2024-02-04T06:41:28;101235.28;;;7.09;100.00
28306;BME280;7516;43.570;1.448;2024-02-04T06:43:57;101231.47;;;7.13;100.00
28306;BME280;7516;43.570;1.448;2024-02-04T06:46:25;101223.13;;;7.21;100.00
28306;BME280;7516;43.570;1.448;2024-02-04T06:48:52;101224.66;;;7.23;100.00
28306;BME280;7516;43.570;1.448;2024-02-04T06:51:20;101227.25;;;7.23;100.00
28306;BME280;7516;43.570;1.448;2024-02-04T06:53:48;101217.91;;;7.21;100.00
28306;BME280;7516;43.570;1.448;2024-02-04T06:56:15;101228.94;;;7.24;100.00
28306;BME280;7516;43.570;1.448;2024-02-04T06:58:43;101229.66;;;7.26;100.00
28306;BME280;7516;43.570;1.448;2024-02-04T07:01:12;101224.56;;;7.25;100.00
28306;BME280;7516;43.570;1.448;2024-02-04T07:03:40;101229.44;;;7.29;100.00
28306;BME280;7516;43.570;1.448;2024-02-04T07:06:07;101228.25;;;7.33;100.00
28306;BME280;7516;43.570;1.448;2024-02-04T07:08:35;101230.28;;;7.30;100.00
28306;BME280;7516;43.570;1.448;2024-02-04T07:11:05;101238.63;;;7.22;100.00
28306;BME280;7516;43.570;1.448;2024-02-04T07:13:35;101235.81;;;7.25;100.00
28306;BME280;7516;43.570;1.448;2024-02-04T07:16:03;101240.47;;;7.33;100.00
28306;BME280;7516;43.570;1.448;2024-02-04T07:18:32;101241.66;;;7.29;100.00
28306;BME280;7516;43.570;1.448;2024-02-04T07:21:00;101236.44;;;7.29;100.00
28306;BME280;7516;43.570;1.448;2024-02-04T07:23:27;101236.69;;;7.13;100.00
28306;BME280;7516;43.570;1.448;2024-02-04T07:25:55;101235.53;;;7.17;100.00
28306;BME280;7516;43.570;1.448;2024-02-04T07:28:22;101236.94;;;7.10;100.00
28306;BME280;7516;43.570;1.448;2024-02-04T07:30:49;101240.94;;;7.03;100.00
28306;BME280;7516;43.570;1.448;2024-02-04T07:33:17;101232.47;;;7.12;100.00
28306;BME280;7516;43.570;1.448;2024-02-04T07:35:46;101239.19;;;7.14;100.00
28306;BME280;7516;43.570;1.448;2024-02-04T07:38:13;101250.47;;;7.15;100.00
28306;BME280;7516;43.570;1.448;2024-02-04T07:40:41;101249.97;;;7.10;100.00
28306;BME280;7516;43.570;1.448;2024-02-04T07:43:08;101247.00;;;7.14;100.00
28306;BME280;7516;43.570;1.448;2024-02-04T07:45:36;101254.66;;;7.05;100.00
28306;BME280;7516;43.570;1.448;2024-02-04T07:48:04;101259.56;;;7.09;100.00
28306;BME280;7516;43.570;1.448;2024-02-04T07:50:32;101253.34;;;7.23;100.00
28306;BME280;7516;43.570;1.448;2024-02-04T07:53:01;101260.38;;;7.34;100.00
28306;BME280;7516;43.570;1.448;2024-02-04T07:55:29;101267.25;;;7.35;100.00
28306;BME280;7516;43.570;1.448;2024-02-04T07:57:56;101269.75;;;7.36;100.00
28306;BME280;7516;43.570;1.448;2024-02-04T08:00:23;101261.81;;;7.38;100.00
28306;BME280;7516;43.570;1.448;2024-02-04T08:02:51;101267.63;;;7.41;100.00
28306;BME280;7516;43.570;1.448;2024-02-04T08:05:18;101269.28;;;7.42;100.00
28306;BME280;7516;43.570;1.448;2024-02-04T08:07:46;101270.13;;;7.43;100.00
28306;BME280;7516;43.570;1.448;2024-02-04T08:10:15;101276.84;;;7.34;100.00
28306;BME280;7516;43.570;1.448;2024-02-04T08:12:42;101274.81;;;7.27;100.00
28306;BME280;7516;43.570;1.448;2024-02-04T08:15:10;101278.16;;;7.29;100.00
28306;BME280;7516;43.570;1.448;2024-02-04T08:17:37;101285.16;;;7.39;100.00
28306;BME280;7516;43.570;1.448;2024-02-04T08:20:09;101283.56;;;7.26;100.00
28306;BME280;7516;43.570;1.448;2024-02-04T08:22:39;101283.41;;;7.16;100.00
28306;BME280;7516;43.570;1.448;2024-02-04T08:25:07;101279.81;;;7.30;100.00
28306;BME280;7516;43.570;1.448;2024-02-04T08:27:39;101287.56;;;7.42;100.00
28306;BME280;7516;43.570;1.448;2024-02-04T08:30:07;101281.03;;;7.48;100.00
28306;BME280;7516;43.570;1.448;2024-02-04T08:32:38;101285.31;;;7.49;100.00
28306;BME280;7516;43.570;1.448;2024-02-04T08:35:09;101290.09;;;7.55;100.00
28306;BME280;7516;43.570;1.448;2024-02-04T08:37:40;101289.69;;;7.48;100.00
28306;BME280;7516;43.570;1.448;2024-02-04T08:40:09;101289.03;;;7.57;100.00
28306;BME280;7516;43.570;1.448;2024-02-04T08:42:38;101301.63;;;7.64;100.00
28306;BME280;7516;43.570;1.448;2024-02-04T08:45:09;101302.47;;;7.64;100.00
28306;BME280;7516;43.570;1.448;2024-02-04T08:47:36;101305.91;;;7.65;100.00
28306;BME280;7516;43.570;1.448;2024-02-04T08:50:05;101298.78;;;7.67;100.00
28306;BME280;7516;43.570;1.448;2024-02-04T08:52:33;101295.47;;;7.65;100.00
28306;BME280;7516;43.570;1.448;2024-02-04T08:55:00;101296.66;;;7.72;100.00
28306;BME280;7516;43.570;1.448;2024-02-04T08:57:30;101297.50;;;7.72;100.00
28306;BME280;7516;43.570;1.448;2024-02-04T08:59:59;101300.47;;;7.79;100.00
28306;BME280;7516;43.570;1.448;2024-02-04T09:02:26;101299.53;;;7.80;100.00
28306;BME280;7516;43.570;1.448;2024-02-04T09:04:54;101295.00;;;7.71;100.00
28306;BME280;7516;43.570;1.448;2024-02-04T09:07:21;101304.59;;;7.70;100.00
28306;BME280;7516;43.570;1.448;2024-02-04T09:09:49;101305.34;;;7.83;100.00
28306;BME280;7516;43.570;1.448;2024-02-04T09:12:16;101301.41;;;7.78;100.00
28306;BME280;7516;43.570;1.448;2024-02-04T09:14:44;101303.31;;;7.76;100.00
28306;BME280;7516;43.570;1.448;2024-02-04T09:17:13;101304.13;;;7.76;100.00
28306;BME280;7516;43.570;1.448;2024-02-04T09:19:40;101305.22;;;7.85;100.00
28306;BME280;7516;43.570;1.448;2024-02-04T09:22:08;101304.75;;;7.80;100.00
28306;BME280;7516;43.570;1.448;2024-02-04T09:24:36;101302.88;;;7.93;100.00
28306;BME280;7516;43.570;1.448;2024-02-04T09:27:03;101297.78;;;7.91;100.00
28306;BME280;7516;43.570;1.448;2024-02-04T09:29:31;101300.66;;;8.00;100.00
28306;BME280;7516;43.570;1.448;2024-02-04T09:31:58;101295.19;;;8.03;100.00
28306;BME280;7516;43.570;1.448;2024-02-04T09:34:27;101297.16;;;7.77;100.00
28306;BME280;7516;43.570;1.448;2024-02-04T09:36:55;101295.41;;;7.88;100.00
28306;BME280;7516;43.570;1.448;2024-02-04T09:39:22;101286.88;;;7.98;100.00
28306;BME280;7516;43.570;1.448;2024-02-04T09:41:50;101280.59;;;8.00;100.00
28306;BME280;7516;43.570;1.448;2024-02-04T09:44:18;101288.31;;;7.90;100.00
28306;BME280;7516;43.570;1.448;2024-02-04T09:46:46;101292.81;;;8.00;100.00
28306;BME280;7516;43.570;1.448;2024-02-04T09:49:13;101291.06;;;8.00;100.00
28306;BME280;7516;43.570;1.448;2024-02-04T09:51:43;101289.13;;;8.02;100.00
28306;BME280;7516;43.570;1.448;2024-02-04T09:54:12;101287.97;;;8.06;100.00
28306;BME280;7516;43.570;1.448;2024-02-04T09:56:43;101284.75;;;8.03;100.00
28306;BME280;7516;43.570;1.448;2024-02-04T09:59:12;101294.25;;;8.04;100.00
28306;BME280;7516;43.570;1.448;2024-02-04T10:01:39;101289.88;;;8.15;100.00
28306;BME280;7516;43.570;1.448;2024-02-04T10:04:07;101294.41;;;8.24;100.00
28306;BME280;7516;43.570;1.448;2024-02-04T10:06:35;101298.66;;;8.25;100.00
28306;BME280;7516;43.570;1.448;2024-02-04T10:09:04;101303.16;;;8.12;100.00
28306;BME280;7516;43.570;1.448;2024-02-04T10:11:31;101307.91;;;8.07;100.00
28306;BME280;7516;43.570;1.448;2024-02-04T10:13:59;101303.66;;;8.17;100.00
28306;BME280;7516;43.570;1.448;2024-02-04T10:16:28;101304.22;;;8.21;100.00
28306;BME280;7516;43.570;1.448;2024-02-04T10:18:55;101295.31;;;8.12;100.00
28306;BME280;7516;43.570;1.448;2024-02-04T10:21:23;101287.50;;;8.23;100.00
28306;BME280;7516;43.570;1.448;2024-02-04T10:23:51;101292.63;;;8.36;100.00
28306;BME280;7516;43.570;1.448;2024-02-04T10:26:20;101292.72;;;8.23;100.00
28306;BME280;7516;43.570;1.448;2024-02-04T10:28:48;101295.56;;;8.20;100.00
28306;BME280;7516;43.570;1.448;2024-02-04T10:31:15;101292.78;;;8.35;100.00
28306;BME280;7516;43.570;1.448;2024-02-04T10:33:44;101305.00;;;8.34;100.00
28306;BME280;7516;43.570;1.448;2024-02-04T10:36:11;101307.13;;;8.51;100.00
28306;BME280;7516;43.570;1.448;2024-02-04T10:38:39;101295.50;;;8.44;100.00
28306;BME280;7516;43.570;1.448;2024-02-04T10:41:07;101293.47;;;8.48;100.00
28306;BME280;7516;43.570;1.448;2024-02-04T10:43:43;101294.19;;;8.61;100.00
28306;BME280;7516;43.570;1.448;2024-02-04T10:46:14;101278.63;;;8.59;100.00
28306;BME280;7516;43.570;1.448;2024-02-04T10:48:45;101275.53;;;8.65;100.00
28306;BME280;7516;43.570;1.448;2024-02-04T10:51:16;101282.88;;;8.72;100.00
28306;BME280;7516;43.570;1.448;2024-02-04T10:53:45;101272.06;;;8.76;100.00
28306;BME280;7516;43.570;1.448;2024-02-04T10:56:17;101278.34;;;8.85;100.00
28306;BME280;7516;43.570;1.448;2024-02-04T10:58:47;101281.47;;;8.79;100.00
28306;BME280;7516;43.570;1.448;2024-02-04T11:01:16;101287.53;;;8.79;100.00
28306;BME280;7516;43.570;1.448;2024-02-04T11:03:45;101291.91;;;8.67;100.00
28306;BME280;7516;43.570;1.448;2024-02-04T11:06:14;101288.69;;;8.75;100.00
28306;BME280;7516;43.570;1.448;2024-02-04T11:08:42;101283.97;;;8.69;100.00
28306;BME280;7516;43.570;1.448;2024-02-04T11:11:09;101295.25;;;8.70;100.00
28306;BME280;7516;43.570;1.448;2024-02-04T11:13:38;101304.25;;;8.54;100.00
28306;BME280;7516;43.570;1.448;2024-02-04T11:16:15;101291.56;;;8.61;100.00
28306;BME280;7516;43.570;1.448;2024-02-04T11:19:07;101290.59;;;8.73;100.00
28306;BME280;7516;43.570;1.448;2024-02-04T11:21:54;101290.47;;;8.63;100.00
28306;BME280;7516;43.570;1.448;2024-02-04T11:24:38;101286.44;;;8.82;100.00
28306;BME280;7516;43.570;1.448;2024-02-04T11:27:09;101286.28;;;8.94;100.00
28306;BME280;7516;43.570;1.448;2024-02-04T11:29:38;101286.81;;;8.77;100.00
28306;BME280;7516;43.570;1.448;2024-02-04T11:32:07;101277.28;;;8.87;100.00
28306;BME280;7516;43.570;1.448;2024-02-04T11:34:37;101259.41;;;9.03;100.00
28306;BME280;7516;43.570;1.448;2024-02-04T11:37:18;101264.16;;;8.98;100.00
28306;BME280;7516;43.570;1.448;2024-02-04T11:39:50;101255.13;;;9.02;100.00
28306;BME280;7516;43.570;1.448;2024-02-04T11:42:17;101256.38;;;9.19;100.00
28306;BME280;7516;43.570;1.448;2024-02-04T11:44:47;101248.94;;;9.03;100.00
28306;BME280;7516;43.570;1.448;2024-02-04T11:47:25;101249.31;;;9.31;100.00
28306;BME280;7516;43.570;1.448;2024-02-04T11:49:56;101238.41;;;9.26;100.00
28306;BME280;7516;43.570;1.448;2024-02-04T11:52:26;101232.88;;;9.40;100.00
28306;BME280;7516;43.570;1.448;2024-02-04T11:54:54;101237.53;;;9.36;100.00
28306;BME280;7516;43.570;1.448;2024-02-04T11:57:22;101224.94;;;9.51;100.00
28306;BME280;7516;43.570;1.448;2024-02-04T11:59:51;101215.91;;;9.55;100.00
28306;BME280;7516;43.570;1.448;2024-02-04T12:02:20;101207.16;;;9.66;100.00
28306;BME280;7516;43.570;1.448;2024-02-04T12:04:50;101210.00;;;9.84;100.00
28306;BME280;7516;43.570;1.448;2024-02-04T12:07:18;101215.84;;;9.97;100.00
28306;BME280;7516;43.570;1.448;2024-02-04T12:09:47;101209.91;;;9.95;100.00
28306;BME280;7516;43.570;1.448;2024-02-04T12:12:15;101211.97;;;9.91;100.00
28306;BME280;7516;43.570;1.448;2024-02-04T12:14:43;101210.88;;;9.94;100.00
28306;BME280;7516;43.570;1.448;2024-02-04T12:17:12;101200.75;;;10.10;100.00
28306;BME280;7516;43.570;1.448;2024-02-04T12:19:40;101194.97;;;10.16;100.00
28306;BME280;7516;43.570;1.448;2024-02-04T12:22:09;101192.16;;;9.98;100.00
28306;BME280;7516;43.570;1.448;2024-02-04T12:24:37;101179.22;;;10.06;100.00
28306;BME280;7516;43.570;1.448;2024-02-04T12:27:06;101175.66;;;10.07;100.00
28306;BME280;7516;43.570;1.448;2024-02-04T12:29:33;101169.94;;;10.23;100.00
28306;BME280;7516;43.570;1.448;2024-02-04T12:32:01;101163.34;;;10.38;100.00
28306;BME280;7516;43.570;1.448;2024-02-04T12:34:30;101165.88;;;10.59;100.00
28306;BME280;7516;43.570;1.448;2024-02-04T12:36:58;101155.97;;;10.63;100.00
28306;BME280;7516;43.570;1.448;2024-02-04T12:39:28;101160.78;;;10.67;100.00
28306;BME280;7516;43.570;1.448;2024-02-04T12:41:59;101159.41;;;10.73;100.00
28306;BME280;7516;43.570;1.448;2024-02-04T12:44:27;101153.34;;;10.72;100.00
28306;BME280;7516;43.570;1.448;2024-02-04T12:46:54;101153.47;;;10.71;100.00
28306;BME280;7516;43.570;1.448;2024-02-04T12:49:22;101159.25;;;10.84;100.00
28306;BME280;7516;43.570;1.448;2024-02-04T12:51:50;101157.47;;;10.94;100.00
28306;BME280;7516;43.570;1.448;2024-02-04T12:54:18;101156.78;;;10.92;100.00
28306;BME280;7516;43.570;1.448;2024-02-04T12:56:50;101150.56;;;11.03;100.00
28306;BME280;7516;43.570;1.448;2024-02-04T12:59:25;101148.78;;;11.03;100.00
28306;BME280;7516;43.570;1.448;2024-02-04T13:01:54;101150.69;;;11.01;100.00
28306;BME280;7516;43.570;1.448;2024-02-04T13:04:22;101152.50;;;10.91;100.00
28306;BME280;7516;43.570;1.448;2024-02-04T13:06:50;101145.31;;;10.93;100.00